Time;durP1;ratioP1;P1;durP2;ratioP2;P2;SDS_P1;SDS_P2;PMS_P1;PMS_P2;Temp;Humidity;BMP_temperature;BMP_pressure;BME280_temperature;BME280_humidity;BME280_pressure;Samples;Min_cycle;Max_cycle;Signal;HPM_P1;HPM_P2
2021/07/04 00:01:15;;;;;;;4.18;2.95;;;14.90;99.90;;;;;;4190249;28;20033;-61
2021/07/04 00:03:16;;;;;;;5.00;3.00;;;15.00;99.90;;;;;;4191050;28;20079;-61
2021/07/04 00:05:19;;;;;;;5.57;3.10;;;14.90;99.90;;;;;;4189598;28;20036;-61
2021/07/04 00:07:20;;;;;;;4.28;2.80;;;14.90;99.90;;;;;;4192111;28;20492;-60
2021/07/04 00:09:22;;;;;;;5.38;3.05;;;14.90;99.90;;;;;;4191413;28;20028;-61
2021/07/04 00:11:23;;;;;;;6.47;3.17;;;14.80;99.90;;;;;;4190952;28;20086;-61
2021/07/04 00:13:26;;;;;;;4.22;3.75;;;14.80;99.90;;;;;;4192008;28;20025;-60
2021/07/04 00:15:30;;;;;;;4.07;3.50;;;14.80;99.90;;;;;;4191073;28;20102;-59
2021/07/04 00:17:31;;;;;;;5.38;3.42;;;14.80;99.90;;;;;;4192892;28;20036;-59
2021/07/04 00:19:32;;;;;;;3.95;2.90;;;14.80;99.90;;;;;;4190563;28;20090;-59
2021/07/04 00:21:33;;;;;;;8.65;3.38;;;14.80;99.90;;;;;;4192374;28;20033;-59
2021/07/04 00:23:34;;;;;;;6.30;3.17;;;14.80;99.90;;;;;;4190563;28;20041;-59
2021/07/04 00:25:36;;;;;;;4.68;3.08;;;14.80;99.90;;;;;;4192458;28;20470;-59
2021/07/04 00:27:38;;;;;;;4.63;3.03;;;14.80;99.90;;;;;;4190505;28;20086;-59
2021/07/04 00:29:39;;;;;;;4.45;3.67;;;14.70;99.90;;;;;;4192290;28;20480;-58
2021/07/04 00:31:40;;;;;;;7.80;4.15;;;14.70;99.90;;;;;;4190036;28;20053;-59
2021/07/04 00:33:41;;;;;;;4.03;3.22;;;14.60;99.90;;;;;;4191965;28;20358;-57
2021/07/04 00:35:42;;;;;;;5.10;3.60;;;14.60;99.90;;;;;;4190358;28;20530;-59
2021/07/04 00:37:44;;;;;;;8.73;3.67;;;14.60;99.90;;;;;;4191463;28;20795;-58
2021/07/04 00:39:45;;;;;;;6.57;4.05;;;14.50;99.90;;;;;;4191130;28;20070;-60
2021/07/04 00:41:46;;;;;;;3.65;3.22;;;14.50;99.90;;;;;;4190818;28;20044;-59
2021/07/04 00:43:48;;;;;;;5.50;3.55;;;14.50;99.90;;;;;;4191284;28;20576;-59
2021/07/04 00:45:49;;;;;;;8.98;3.50;;;14.50;99.90;;;;;;4190034;28;20992;-58
2021/07/04 00:47:51;;;;;;;9.90;3.60;;;14.50;99.90;;;;;;4191476;28;20529;-59
2021/07/04 00:49:52;;;;;;;10.33;3.93;;;14.50;99.90;;;;;;4190138;28;20066;-59
2021/07/04 00:51:54;;;;;;;9.77;3.80;;;14.50;99.90;;;;;;4191894;28;20036;-59
2021/07/04 00:53:58;;;;;;;4.00;3.53;;;14.50;99.90;;;;;;4190104;28;20062;-59
2021/07/04 00:55:59;;;;;;;4.10;3.67;;;14.50;99.90;;;;;;4191633;28;20484;-59
2021/07/04 00:58:01;;;;;;;4.10;3.70;;;14.50;99.90;;;;;;4189781;28;20029;-59
2021/07/04 01:00:07;;;;;;;6.88;3.97;;;14.50;99.90;;;;;;4191490;28;20029;-59
2021/07/04 01:02:08;;;;;;;7.57;3.75;;;14.50;99.90;;;;;;4190140;28;20756;-58
2021/07/04 01:04:10;;;;;;;6.60;3.67;;;14.50;99.90;;;;;;4191664;28;20072;-59
2021/07/04 01:06:11;;;;;;;9.03;4.00;;;14.50;99.90;;;;;;4171299;28;20053;-60
2021/07/04 01:08:13;;;;;;;9.03;3.57;;;14.50;99.90;;;;;;4191672;28;20085;-59
2021/07/04 01:10:17;;;;;;;4.38;3.53;;;14.50;99.90;;;;;;4190051;28;20029;-59
2021/07/04 01:12:18;;;;;;;8.13;4.15;;;14.50;99.90;;;;;;4190291;28;20032;-59
2021/07/04 01:14:19;;;;;;;5.68;3.60;;;14.50;99.90;;;;;;4190203;28;20086;-58
2021/07/04 01:16:21;;;;;;;8.90;4.03;;;14.50;99.90;;;;;;4190547;28;20032;-59
2021/07/04 01:18:22;;;;;;;6.35;3.70;;;14.50;99.90;;;;;;4190725;28;20679;-59
2021/07/04 01:20:27;;;;;;;5.72;4.05;;;14.50;99.90;;;;;;4189036;28;20036;-58
2021/07/04 01:22:30;;;;;;;6.38;3.95;;;14.50;99.90;;;;;;4191292;28;20033;-59
2021/07/04 01:24:31;;;;;;;4.32;3.47;;;14.50;99.90;;;;;;4189455;28;20036;-58
2021/07/04 01:26:33;;;;;;;7.90;3.47;;;14.50;99.90;;;;;;4191283;28;20083;-59
2021/07/04 01:28:35;;;;;;;4.20;3.55;;;14.50;99.90;;;;;;4189513;28;20098;-59
2021/07/04 01:30:37;;;;;;;8.25;3.10;;;14.50;99.90;;;;;;4190893;28;20041;-59
2021/07/04 01:32:38;;;;;;;4.90;3.50;;;14.50;99.90;;;;;;4189326;28;20033;-60
2021/07/04 01:34:39;;;;;;;12.33;4.30;;;14.50;99.90;;;;;;4191255;28;20053;-59
2021/07/04 01:36:40;;;;;;;5.15;3.70;;;14.50;99.90;;;;;;4189183;28;20783;-60
2021/07/04 01:38:43;;;;;;;3.97;3.37;;;14.40;99.90;;;;;;4190751;28;20476;-59
2021/07/04 01:40:44;;;;;;;5.47;3.70;;;14.40;99.90;;;;;;4189462;28;20455;-60
2021/07/04 01:42:46;;;;;;;6.32;3.47;;;14.40;99.90;;;;;;4190803;28;20736;-60
2021/07/04 01:44:47;;;;;;;6.18;3.67;;;14.40;99.90;;;;;;4189244;28;20024;-60
2021/07/04 01:46:48;;;;;;;5.22;3.10;;;14.30;99.90;;;;;;4190178;28;20106;-60
2021/07/04 01:48:49;;;;;;;5.47;3.65;;;14.30;99.90;;;;;;4190152;28;20021;-58
2021/07/04 01:50:51;;;;;;;6.55;3.78;;;14.30;99.90;;;;;;4189895;28;20094;-60
2021/07/04 01:52:52;;;;;;;6.97;3.58;;;14.30;99.90;;;;;;4190530;28;20090;-60
2021/07/04 01:54:53;;;;;;;5.27;3.70;;;14.30;99.90;;;;;;4189184;28;20102;-60
2021/07/04 01:56:55;;;;;;;4.30;3.43;;;14.30;99.90;;;;;;4190686;28;20049;-60
2021/07/04 01:58:56;;;;;;;4.33;3.60;;;14.30;99.90;;;;;;4189403;28;20028;-60
2021/07/04 02:01:00;;;;;;;5.10;3.30;;;14.30;99.90;;;;;;4190739;28;20427;-62
2021/07/04 02:03:04;;;;;;;6.53;4.00;;;14.40;99.90;;;;;;4188856;28;20042;-59
2021/07/04 02:05:06;;;;;;;7.33;4.20;;;14.30;99.90;;;;;;4190983;28;20098;-59
2021/07/04 02:07:15;;;;;;;4.18;3.42;;;14.40;99.90;;;;;;4189107;28;20095;-59
2021/07/04 02:09:16;;;;;;;4.38;3.70;;;14.40;99.90;;;;;;4190689;28;20048;-60
2021/07/04 02:11:17;;;;;;;6.87;4.40;;;14.40;99.90;;;;;;4188919;28;20093;-59
2021/07/04 02:13:18;;;;;;;5.40;3.58;;;14.40;99.90;;;;;;4190508;28;20435;-60
2021/07/04 02:15:22;;;;;;;4.40;3.50;;;14.40;99.90;;;;;;4189093;28;20078;-60
2021/07/04 02:17:23;;;;;;;5.78;4.00;;;14.40;99.90;;;;;;4190142;28;20586;-60
2021/07/04 02:19:32;;;;;;;4.38;3.40;;;14.40;99.90;;;;;;4189179;28;20016;-60
2021/07/04 02:21:33;;;;;;;5.87;3.90;;;14.40;99.90;;;;;;4189866;28;20024;-60
2021/07/04 02:23:34;;;;;;;7.05;3.97;;;14.40;99.90;;;;;;4188857;28;20036;-59
2021/07/04 02:25:38;;;;;;;4.70;3.90;;;14.50;99.90;;;;;;4189177;28;20094;-60
2021/07/04 02:27:39;;;;;;;7.57;3.42;;;14.50;99.90;;;;;;4189569;28;20067;-59
2021/07/04 02:29:40;;;;;;;4.63;3.25;;;14.50;99.90;;;;;;4188888;28;20427;-59
2021/07/04 02:31:41;;;;;;;6.70;3.53;;;14.50;99.90;;;;;;4189697;28;20045;-60
2021/07/04 02:33:42;;;;;;;5.27;3.93;;;14.50;99.90;;;;;;4188352;28;20082;-60
2021/07/04 02:35:49;;;;;;;4.43;3.30;;;14.50;99.90;;;;;;4190522;28;20040;-60
2021/07/04 02:37:50;;;;;;;7.10;4.05;;;14.60;99.90;;;;;;4188145;28;20074;-59
2021/07/04 02:39:51;;;;;;;5.85;3.85;;;14.60;99.90;;;;;;4190264;28;20476;-60
2021/07/04 02:41:52;;;;;;;5.75;3.83;;;14.60;99.90;;;;;;4188656;28;20476;-58
2021/07/04 02:43:53;;;;;;;4.90;3.75;;;14.60;99.90;;;;;;4190284;28;20020;-59
2021/07/04 02:45:55;;;;;;;4.43;3.40;;;14.60;99.90;;;;;;4188571;28;20085;-59
2021/07/04 02:47:56;;;;;;;4.88;4.03;;;14.60;99.90;;;;;;4189884;28;20037;-59
2021/07/04 02:49:57;;;;;;;4.85;4.10;;;14.60;99.90;;;;;;4187281;28;20074;-59
2021/07/04 02:51:58;;;;;;;6.93;3.72;;;14.70;99.90;;;;;;4190353;28;20063;-59
2021/07/04 02:54:00;;;;;;;4.57;4.18;;;14.60;99.90;;;;;;4188660;28;20478;-60
2021/07/04 02:56:01;;;;;;;8.05;4.40;;;14.60;99.90;;;;;;4189486;28;20090;-59
2021/07/04 02:58:03;;;;;;;5.68;3.67;;;14.60;99.90;;;;;;4188971;28;20020;-59
2021/07/04 03:00:09;;;;;;;5.20;3.97;;;14.60;99.90;;;;;;4188872;28;20103;-59
2021/07/04 03:02:11;;;;;;;8.50;4.50;;;14.60;99.90;;;;;;4189051;28;20911;-59
2021/07/04 03:04:12;;;;;;;5.90;4.28;;;14.60;99.90;;;;;;4188811;28;20032;-59
2021/07/04 03:06:13;;;;;;;4.55;4.07;;;14.60;99.90;;;;;;4189618;28;20047;-59
2021/07/04 03:08:14;;;;;;;5.72;4.43;;;14.60;99.90;;;;;;4188188;28;20029;-59
2021/07/04 03:10:17;;;;;;;8.27;4.68;;;14.60;99.90;;;;;;4189793;28;20085;-59
2021/07/04 03:12:18;;;;;;;5.82;4.68;;;14.60;99.90;;;;;;4188376;28;20070;-59
2021/07/04 03:14:20;;;;;;;4.22;3.50;;;14.60;99.90;;;;;;4189797;28;20480;-58
2021/07/04 03:16:21;;;;;;;5.85;3.00;;;14.70;99.90;;;;;;4188583;28;20036;-59
2021/07/04 03:18:22;;;;;;;9.32;3.95;;;14.70;99.90;;;;;;4189507;28;20032;-59
2021/07/04 03:20:23;;;;;;;5.22;3.92;;;14.80;99.90;;;;;;4187970;28;20024;-60
2021/07/04 03:22:25;;;;;;;6.47;4.68;;;14.80;99.90;;;;;;4190409;28;20074;-60
2021/07/04 03:24:26;;;;;;;7.47;3.85;;;14.90;99.90;;;;;;4188318;28;20074;-60
2021/07/04 03:26:27;;;;;;;4.32;3.75;;;14.90;99.90;;;;;;4189703;28;20070;-60
2021/07/04 03:28:28;;;;;;;8.35;3.60;;;15.00;99.90;;;;;;4188351;28;20638;-59
2021/07/04 03:30:29;;;;;;;4.30;3.90;;;15.00;99.90;;;;;;4188674;28;20021;-60
2021/07/04 03:32:30;;;;;;;4.30;3.90;;;15.10;99.90;;;;;;4189037;28;20090;-59
2021/07/04 03:34:32;;;;;;;5.00;3.53;;;15.10;99.90;;;;;;4188163;28;20024;-60
2021/07/04 03:36:33;;;;;;;6.70;4.20;;;15.20;99.90;;;;;;4191842;28;20032;-60
2021/07/04 03:38:34;;;;;;;5.95;3.75;;;15.30;99.90;;;;;;4191862;28;20555;-60
2021/07/04 03:40:35;;;;;;;5.93;4.07;;;15.30;99.90;;;;;;4193017;28;20059;-60
2021/07/04 03:42:37;;;;;;;6.28;3.90;;;15.30;99.90;;;;;;4191496;28;20114;-60
2021/07/04 03:44:39;;;;;;;4.75;3.85;;;15.40;99.90;;;;;;4192990;28;20028;-60
2021/07/04 03:46:40;;;;;;;5.18;3.63;;;15.40;99.90;;;;;;4191185;28;20534;-60
2021/07/04 03:48:41;;;;;;;5.78;3.53;;;15.40;99.90;;;;;;4193115;28;20033;-60
2021/07/04 03:50:42;;;;;;;5.65;3.70;;;15.40;99.90;;;;;;4190924;28;20444;-60
2021/07/04 03:52:43;;;;;;;6.90;3.83;;;15.40;99.90;;;;;;4193024;28;20063;-60
2021/07/04 03:54:45;;;;;;;11.00;4.22;;;15.40;99.90;;;;;;4191093;28;20041;-61
2021/07/04 03:56:47;;;;;;;9.20;3.72;;;15.40;99.90;;;;;;4192383;28;20465;-60
2021/07/04 03:58:48;;;;;;;4.15;3.55;;;15.50;99.90;;;;;;4191076;28;20913;-60
2021/07/04 04:00:49;;;;;;;7.45;4.15;;;15.50;99.90;;;;;;4191806;28;20530;-60
2021/07/04 04:02:51;;;;;;;4.00;3.60;;;15.50;99.90;;;;;;4191214;28;20028;-60
2021/07/04 04:04:56;;;;;;;7.35;4.45;;;15.50;99.90;;;;;;4191087;28;20090;-61
2021/07/04 04:06:57;;;;;;;6.35;4.00;;;15.50;99.90;;;;;;4191397;28;20033;-60
2021/07/04 04:08:58;;;;;;;8.63;4.55;;;15.50;99.90;;;;;;4190795;28;20048;-60
2021/07/04 04:11:00;;;;;;;9.75;6.47;;;15.50;99.90;;;;;;4192129;28;20078;-60
2021/07/04 04:13:01;;;;;;;9.88;6.32;;;15.40;99.90;;;;;;4190895;28;20036;-61
2021/07/04 04:15:03;;;;;;;5.88;4.97;;;15.40;99.90;;;;;;4192445;28;20082;-60
2021/07/04 04:17:05;;;;;;;7.63;4.85;;;15.40;99.90;;;;;;4190269;28;20097;-60
2021/07/04 04:19:06;;;;;;;6.05;5.43;;;15.50;99.90;;;;;;4192685;28;20125;-60
2021/07/04 04:21:08;;;;;;;12.13;5.43;;;15.50;99.90;;;;;;4190298;28;20086;-60
2021/07/04 04:23:10;;;;;;;6.65;5.70;;;15.60;99.90;;;;;;4192592;28;20021;-60
2021/07/04 04:25:11;;;;;;;9.48;6.72;;;15.60;99.90;;;;;;4190784;28;20086;-61
2021/07/04 04:27:12;;;;;;;9.55;6.45;;;15.70;99.90;;;;;;4192220;28;20025;-60
2021/07/04 04:29:13;;;;;;;7.55;5.53;;;15.70;99.90;;;;;;4190254;28;20621;-60
2021/07/04 04:31:14;;;;;;;9.68;5.40;;;15.70;99.90;;;;;;4191157;28;20078;-60
2021/07/04 04:33:16;;;;;;;6.22;4.38;;;15.80;99.90;;;;;;4191263;28;20094;-59
2021/07/04 04:35:17;;;;;;;5.50;4.22;;;15.80;99.90;;;;;;4191189;28;20473;-60
2021/07/04 04:37:18;;;;;;;11.75;4.22;;;15.80;99.90;;;;;;4191505;28;20024;-59
2021/07/04 04:39:20;;;;;;;6.25;4.22;;;15.90;99.90;;;;;;4190543;28;20633;-60
2021/07/04 04:41:22;;;;;;;4.35;3.70;;;15.90;99.90;;;;;;4190400;28;20044;-60
2021/07/04 04:43:23;;;;;;;6.05;3.90;;;15.90;99.90;;;;;;4190516;28;20048;-60
2021/07/04 04:45:24;;;;;;;8.00;4.28;;;16.00;99.90;;;;;;4191856;28;20427;-60
2021/07/04 04:47:25;;;;;;;4.93;3.47;;;16.00;99.90;;;;;;4188541;28;20046;-60
2021/07/04 04:49:26;;;;;;;4.30;3.90;;;16.10;99.90;;;;;;4191830;28;20040;-60
2021/07/04 04:51:29;;;;;;;6.40;4.07;;;16.10;99.90;;;;;;4190140;28;20036;-60
2021/07/04 04:53:30;;;;;;;9.18;4.40;;;16.10;99.90;;;;;;4192033;28;20438;-60
2021/07/04 04:55:31;;;;;;;5.00;4.07;;;16.10;99.90;;;;;;4189754;28;20028;-59
2021/07/04 04:57:33;;;;;;;4.85;3.63;;;16.10;99.90;;;;;;4191934;28;20810;-59
2021/07/04 04:59:38;;;;;;;3.83;3.42;;;16.20;99.90;;;;;;4189746;28;20323;-59
2021/07/04 05:01:39;;;;;;;7.70;4.15;;;16.20;99.90;;;;;;4191188;28;20032;-60
2021/07/04 05:03:41;;;;;;;8.05;4.00;;;16.30;99.90;;;;;;4190034;28;20058;-60
2021/07/04 05:05:42;;;;;;;5.05;3.97;;;16.30;99.90;;;;;;4191112;28;20044;-59
2021/07/04 05:07:43;;;;;;;5.00;4.03;;;16.40;99.90;;;;;;4190368;28;20118;-61
2021/07/04 05:09:44;;;;;;;6.80;5.68;;;16.50;99.90;;;;;;4189840;28;20074;-60
2021/07/04 05:11:45;;;;;;;7.07;4.50;;;16.50;99.90;;;;;;4191229;28;20029;-61
2021/07/04 05:13:46;;;;;;;6.00;3.67;;;16.60;99.90;;;;;;4188492;28;20028;-61
2021/07/04 05:15:47;;;;;;;7.68;4.70;;;16.60;99.90;;;;;;4191399;28;20028;-61
2021/07/04 05:17:49;;;;;;;4.72;3.58;;;16.70;99.90;;;;;;4189563;28;20109;-61
2021/07/04 05:19:50;;;;;;;5.35;3.80;;;16.80;99.90;;;;;;4191408;28;20037;-61
2021/07/04 05:21:51;;;;;;;5.03;3.88;;;16.80;99.90;;;;;;4189339;28;20794;-61
2021/07/04 05:23:52;;;;;;;4.65;3.42;;;16.80;99.90;;;;;;4191794;28;20555;-60
2021/07/04 05:25:57;;;;;;;5.15;3.30;;;16.90;99.90;;;;;;4189524;28;20024;-61
2021/07/04 05:27:58;;;;;;;5.45;3.20;;;16.90;99.90;;;;;;4190393;28;20070;-61
2021/07/04 05:29:59;;;;;;;5.03;3.80;;;16.90;99.90;;;;;;4189469;28;20145;-61
2021/07/04 05:32:00;;;;;;;8.13;3.92;;;16.90;99.90;;;;;;4191282;28;20566;-61
2021/07/04 05:34:02;;;;;;;6.90;3.42;;;16.90;99.90;;;;;;4187889;28;20094;-61
2021/07/04 05:36:04;;;;;;;4.55;3.45;;;17.00;99.90;;;;;;4189703;28;20134;-61
2021/07/04 05:38:06;;;;;;;5.38;3.92;;;17.00;99.90;;;;;;4189754;28;20058;-60
2021/07/04 05:40:14;;;;;;;6.32;3.90;;;17.00;99.90;;;;;;4189432;28;20032;-61
2021/07/04 05:42:15;;;;;;;5.35;3.95;;;17.10;99.90;;;;;;4190056;28;20078;-60
2021/07/04 05:44:16;;;;;;;6.82;4.32;;;17.10;99.90;;;;;;4189745;28;20028;-61
2021/07/04 05:46:17;;;;;;;9.15;3.88;;;17.10;99.90;;;;;;4190243;28;20082;-60
2021/07/04 05:48:18;;;;;;;7.05;4.10;;;17.10;99.90;;;;;;4188963;28;20094;-61
2021/07/04 05:50:20;;;;;;;7.97;4.30;;;17.10;99.90;;;;;;4191134;28;20033;-60
2021/07/04 05:52:21;;;;;;;10.20;4.13;;;17.10;99.90;;;;;;4189288;28;20036;-60
2021/07/04 05:54:22;;;;;;;7.40;4.15;;;17.10;99.90;;;;;;4189873;28;20090;-61
2021/07/04 05:56:23;;;;;;;6.35;4.25;;;17.10;99.90;;;;;;4189376;28;20095;-60
2021/07/04 05:58:24;;;;;;;6.28;4.28;;;17.10;99.90;;;;;;4190093;28;20081;-60
2021/07/04 06:00:26;;;;;;;8.55;4.70;;;17.10;99.90;;;;;;4188628;28;20084;-61
2021/07/04 06:02:28;;;;;;;6.43;3.92;;;17.10;99.90;;;;;;4190476;28;20067;-60
2021/07/04 06:04:29;;;;;;;8.05;4.25;;;17.10;99.90;;;;;;4188888;28;20032;-60
2021/07/04 06:06:31;;;;;;;11.40;4.10;;;17.10;99.90;;;;;;4190050;28;20036;-60
2021/07/04 06:08:32;;;;;;;6.13;4.45;;;17.10;99.90;;;;;;4189246;28;20063;-60
2021/07/04 06:10:35;;;;;;;5.88;4.43;;;17.10;99.90;;;;;;4189531;28;20024;-60
2021/07/04 06:12:36;;;;;;;7.97;4.47;;;17.10;99.90;;;;;;4189472;28;20009;-60
2021/07/04 06:14:38;;;;;;;7.35;4.40;;;17.10;99.90;;;;;;4188527;28;20032;-60
2021/07/04 06:16:39;;;;;;;4.47;3.72;;;17.10;99.90;;;;;;4189874;28;20028;-60
2021/07/04 06:18:40;;;;;;;4.75;4.30;;;17.10;99.90;;;;;;4188847;28;20106;-58
2021/07/04 06:20:41;;;;;;;7.88;4.35;;;17.10;99.90;;;;;;4190334;28;20415;-60
2021/07/04 06:22:43;;;;;;;5.32;4.45;;;17.10;99.90;;;;;;4188687;28;20082;-61
2021/07/04 06:24:44;;;;;;;6.65;4.07;;;17.10;99.90;;;;;;4190318;28;20983;-60
2021/07/04 06:26:45;;;;;;;5.57;4.25;;;17.10;99.90;;;;;;4188279;28;20029;-60
2021/07/04 06:28:46;;;;;;;6.53;4.32;;;17.10;99.90;;;;;;4189824;28;20041;-60
2021/07/04 06:30:48;;;;;;;6.18;4.25;;;17.20;99.90;;;;;;4188483;28;20049;-60
2021/07/04 06:32:49;;;;;;;7.25;4.88;;;17.10;99.90;;;;;;4189639;28;20765;-60
2021/07/04 06:34:50;;;;;;;8.35;5.57;;;17.20;99.90;;;;;;4188379;28;20044;-60
2021/07/04 06:36:51;;;;;;;6.18;5.00;;;17.20;99.90;;;;;;4189935;28;20036;-60
2021/07/04 06:38:53;;;;;;;8.55;5.03;;;17.20;99.90;;;;;;4188519;28;20086;-60
2021/07/04 06:40:54;;;;;;;6.25;4.82;;;17.20;99.90;;;;;;4189703;28;20029;-60
2021/07/04 06:42:56;;;;;;;6.10;4.50;;;17.20;99.90;;;;;;4187644;28;20050;-60
2021/07/04 06:44:57;;;;;;;6.80;4.70;;;17.30;99.90;;;;;;4189121;28;20415;-58
2021/07/04 06:46:58;;;;;;;6.28;4.47;;;17.30;99.90;;;;;;4188970;28;20472;-59
2021/07/04 06:48:59;;;;;;;6.18;4.63;;;17.30;99.90;;;;;;4188549;28;20044;-59
2021/07/04 06:51:00;;;;;;;10.18;4.80;;;17.30;99.90;;;;;;4189542;28;20086;-60
2021/07/04 06:53:01;;;;;;;7.20;5.30;;;17.40;99.90;;;;;;4188883;28;20098;-60
2021/07/04 06:55:04;;;;;;;9.30;4.80;;;17.40;99.90;;;;;;4189220;28;20028;-60
2021/07/04 06:59:25;;;;;;;6.38;4.68;;;17.30;99.90;;;;;;4189751;28;20041;-60
2021/07/04 07:01:26;;;;;;;7.57;4.60;;;17.40;99.90;;;;;;4187947;28;20020;-60
2021/07/04 07:03:27;;;;;;;11.35;4.80;;;17.40;99.90;;;;;;4188787;28;20032;-59
2021/07/04 07:05:29;;;;;;;9.60;6.05;;;17.40;99.90;;;;;;4187855;28;20033;-60
2021/07/04 07:07:30;;;;;;;12.32;5.13;;;17.40;99.90;;;;;;4189379;28;20040;-60
2021/07/04 07:09:32;;;;;;;6.97;4.88;;;17.50;99.90;;;;;;4188003;28;20082;-60
2021/07/04 07:11:33;;;;;;;7.43;5.00;;;17.50;99.90;;;;;;4192606;28;20768;-59
2021/07/04 07:13:35;;;;;;;9.80;5.10;;;17.60;99.90;;;;;;4191833;28;20025;-60
2021/07/04 07:15:36;;;;;;;7.60;4.20;;;17.60;99.90;;;;;;4192931;28;20033;-59
2021/07/04 07:17:38;;;;;;;7.53;5.10;;;17.60;99.90;;;;;;4191898;28;20078;-60
2021/07/04 07:19:40;;;;;;;7.93;4.57;;;17.70;99.90;;;;;;4192394;28;20071;-60
2021/07/04 07:21:42;;;;;;;5.97;4.57;;;17.80;99.90;;;;;;4191972;28;20082;-61
2021/07/04 07:23:43;;;;;;;5.65;4.40;;;17.80;99.90;;;;;;4191993;28;20055;-60
2021/07/04 07:25:44;;;;;;;8.15;4.80;;;17.90;99.90;;;;;;4192648;28;20024;-60
2021/07/04 07:27:45;;;;;;;7.55;4.30;;;18.00;99.90;;;;;;4191138;28;20037;-60
2021/07/04 07:29:46;;;;;;;7.53;4.38;;;18.00;99.90;;;;;;4192922;28;20024;-61
2021/07/04 07:31:47;;;;;;;5.45;4.18;;;18.10;99.90;;;;;;4190602;28;20113;-60
2021/07/04 07:33:49;;;;;;;5.40;3.83;;;18.10;99.90;;;;;;4191780;28;20040;-61
2021/07/04 07:35:51;;;;;;;5.28;3.70;;;18.20;99.90;;;;;;4191251;28;20437;-60
2021/07/04 07:37:52;;;;;;;7.57;3.78;;;18.20;99.90;;;;;;4192482;28;20097;-60
2021/07/04 07:39:53;;;;;;;6.20;3.72;;;18.10;99.90;;;;;;4190805;28;20028;-61
2021/07/04 07:41:56;;;;;;;5.72;3.85;;;18.20;99.90;;;;;;4192406;28;20090;-59
2021/07/04 07:43:57;;;;;;;6.32;3.38;;;18.20;99.90;;;;;;4190908;28;20358;-60
2021/07/04 07:45:58;;;;;;;4.60;3.22;;;18.30;99.90;;;;;;4191913;28;20477;-60
2021/07/04 07:47:59;;;;;;;8.23;3.28;;;18.40;99.90;;;;;;4191334;28;20040;-60
2021/07/04 07:50:01;;;;;;;4.45;3.33;;;18.40;99.90;;;;;;4191396;28;20094;-60
2021/07/04 07:52:03;;;;;;;4.63;3.40;;;18.40;99.90;;;;;;4191442;28;20102;-60
2021/07/04 07:54:05;;;;;;;4.63;3.88;;;18.40;99.90;;;;;;4192019;28;20398;-60
2021/07/04 07:56:06;;;;;;;4.22;3.72;;;18.50;99.90;;;;;;4191917;28;20103;-60
2021/07/04 07:58:07;;;;;;;4.32;3.60;;;18.50;99.90;;;;;;4190962;28;20041;-61
2021/07/04 08:00:10;;;;;;;5.00;3.40;;;18.60;99.90;;;;;;4191981;28;20044;-61
2021/07/04 08:02:12;;;;;;;5.30;3.08;;;18.60;99.90;;;;;;4190304;28;20526;-60
2021/07/04 08:04:13;;;;;;;4.38;2.60;;;18.80;99.90;;;;;;4192469;28;20420;-60
2021/07/04 08:06:14;;;;;;;4.97;2.47;;;18.90;99.90;;;;;;4190711;28;20090;-60
2021/07/04 08:08:15;;;;;;;4.18;2.78;;;19.00;99.90;;;;;;4192140;28;20130;-61
2021/07/04 08:10:16;;;;;;;3.75;2.78;;;19.00;99.90;;;;;;4190325;28;20040;-61
2021/07/04 08:12:18;;;;;;;2.97;2.50;;;19.10;99.90;;;;;;4192315;28;20086;-61
2021/07/04 08:14:19;;;;;;;5.20;3.00;;;19.20;99.90;;;;;;4190641;28;20432;-60
2021/07/04 08:16:20;;;;;;;3.83;3.08;;;19.30;99.90;;;;;;4191743;28;20426;-61
2021/07/04 08:18:24;;;;;;;4.75;3.13;;;19.30;99.90;;;;;;4190228;28;20074;-60
2021/07/04 08:20:26;;;;;;;5.70;3.60;;;19.20;99.90;;;;;;4191738;28;20426;-60
2021/07/04 08:22:28;;;;;;;6.22;3.70;;;19.20;99.90;;;;;;4190485;28;20036;-60
2021/07/04 08:24:29;;;;;;;4.30;3.33;;;19.10;99.90;;;;;;4191514;28;20071;-60
2021/07/04 08:26:30;;;;;;;6.10;3.45;;;19.00;99.90;;;;;;4191263;28;20029;-61
2021/07/04 08:28:31;;;;;;;6.07;4.30;;;18.90;99.90;;;;;;4190117;28;20040;-60
2021/07/04 08:30:32;;;;;;;7.25;5.18;;;18.90;99.90;;;;;;4192021;28;20041;-60
2021/07/04 08:32:33;;;;;;;4.63;3.70;;;19.00;99.90;;;;;;4189968;28;20831;-60
2021/07/04 08:34:34;;;;;;;6.03;4.10;;;19.00;99.90;;;;;;4192381;28;20106;-60
2021/07/04 08:36:35;;;;;;;12.68;8.88;;;19.00;99.90;;;;;;4189461;28;20028;-61
2021/07/04 08:38:37;;;;;;;8.45;4.68;;;19.10;99.90;;;;;;4191711;28;20133;-60
2021/07/04 08:40:38;;;;;;;5.88;5.15;;;19.00;99.90;;;;;;4189868;28;20028;-60
2021/07/04 08:42:39;;;;;;;7.93;4.50;;;19.10;99.90;;;;;;4190190;28;20090;-60
2021/07/04 08:44:54;;;;;;;6.93;4.88;;;19.20;99.90;;;;;;4189411;28;20037;-61
2021/07/04 08:46:58;;;;;;;5.32;4.25;;;19.30;99.90;;;;;;4191673;28;20036;-60
2021/07/04 08:48:59;;;;;;;4.65;4.22;;;19.40;99.90;;;;;;4188446;28;20106;-60
2021/07/04 08:51:01;;;;;;;7.70;4.45;;;19.50;99.90;;;;;;4191657;28;20108;-61
2021/07/04 08:53:02;;;;;;;5.28;4.40;;;19.60;99.90;;;;;;4189964;28;20074;-60
2021/07/04 08:55:05;;;;;;;7.47;5.28;;;19.80;99.90;;;;;;4190407;28;20036;-61
2021/07/04 08:57:11;;;;;;;8.25;5.07;;;20.00;99.90;;;;;;4190186;28;20028;-60
2021/07/04 08:59:12;;;;;;;6.20;4.68;;;20.40;99.90;;;;;;4190638;28;20774;-60
2021/07/04 09:01:21;;;;;;;5.97;4.38;;;20.80;99.90;;;;;;4190519;28;20032;-61
2021/07/04 09:03:24;;;;;;;6.57;4.13;;;21.10;99.90;;;;;;4190070;28;20071;-60
2021/07/04 09:05:25;;;;;;;6.20;4.38;;;21.20;99.90;;;;;;4190625;28;20134;-61
2021/07/04 09:07:30;;;;;;;5.05;4.10;;;21.30;99.90;;;;;;4187702;28;20086;-60
2021/07/04 09:09:35;;;;;;;10.52;4.30;;;21.40;99.90;;;;;;4190137;28;20633;-60
2021/07/04 09:11:36;;;;;;;7.00;4.38;;;21.50;99.90;;;;;;4189457;28;20028;-59
2021/07/04 09:13:38;;;;;;;8.38;5.88;;;21.50;99.90;;;;;;4190955;28;20032;-59
2021/07/04 09:15:39;;;;;;;6.95;5.00;;;21.50;99.90;;;;;;4189440;28;20419;-59
2021/07/04 09:17:46;;;;;;;5.93;5.25;;;21.50;99.90;;;;;;4190827;28;20135;-60
2021/07/04 09:19:56;;;;;;;8.65;5.82;;;21.50;99.90;;;;;;4189350;28;20042;-59
2021/07/04 09:22:07;;;;;;;10.32;5.55;;;21.40;99.90;;;;;;4190525;28;20024;-61
2021/07/04 09:24:25;;;;;;;6.53;4.70;;;21.40;99.90;;;;;;4188218;28;20032;-60
2021/07/04 09:26:43;;;;;;;9.60;6.13;;;21.20;99.90;;;;;;4190319;28;20082;-60
2021/07/04 09:28:44;;;;;;;10.88;6.05;;;21.10;99.90;;;;;;4188962;28;20433;-60
2021/07/04 09:30:50;;;;;;;6.05;5.18;;;21.20;99.90;;;;;;4190406;28;20054;-60
2021/07/04 09:32:51;;;;;;;6.72;5.13;;;21.00;99.90;;;;;;4187874;28;20074;-61
2021/07/04 09:35:10;;;;;;;9.18;5.63;;;20.90;99.90;;;;;;4190860;28;20038;-60
2021/07/04 09:37:11;;;;;;;6.32;4.97;;;20.90;99.90;;;;;;4188574;28;20034;-60
2021/07/04 09:39:20;;;;;;;6.95;4.90;;;20.90;99.90;;;;;;4190277;28;20090;-60
2021/07/04 09:41:22;;;;;;;5.30;4.10;;;20.90;99.90;;;;;;4188578;28;20028;-61
2021/07/04 09:43:27;;;;;;;5.97;4.55;;;20.90;99.90;;;;;;4190147;28;20086;-61
2021/07/04 09:45:48;;;;;;;5.20;4.70;;;20.80;99.90;;;;;;4188533;28;20082;-61
2021/07/04 09:47:56;;;;;;;;;;;20.70;99.90;;;;;;4191037;28;20493;-60
2021/07/04 09:50:05;;;;;;;6.00;5.20;;;20.70;99.90;;;;;;4188828;28;19909;-61
2021/07/04 09:52:19;;;;;;;5.40;4.13;;;20.70;99.90;;;;;;4190126;28;20576;-62
2021/07/04 09:54:20;;;;;;;7.43;5.25;;;20.70;99.90;;;;;;4189000;28;20105;-60
2021/07/04 09:56:28;;;;;;;7.85;4.75;;;20.80;99.90;;;;;;4190363;28;20081;-61
2021/07/04 09:58:34;;;;;;;6.60;4.97;;;20.80;99.90;;;;;;4188523;28;20032;-61
2021/07/04 10:00:43;;;;;;;5.10;4.22;;;20.80;99.90;;;;;;4190503;28;20456;-61
2021/07/04 10:03:11;;;;;;;7.35;4.78;;;20.80;99.90;;;;;;4188459;28;20032;-61
2021/07/04 10:05:16;;;;;;;6.35;4.00;;;20.90;99.90;;;;;;4190452;28;20125;-61
2021/07/04 10:07:17;;;;;;;6.93;4.13;;;21.00;99.90;;;;;;4188511;28;20028;-61
2021/07/04 10:09:20;;;;;;;5.85;4.07;;;21.10;99.90;;;;;;4189968;28;20037;-61
2021/07/04 10:11:21;;;;;;;6.32;4.40;;;21.10;99.90;;;;;;4188194;28;20033;-59
2021/07/04 10:13:23;;;;;;;4.88;3.97;;;21.10;99.90;;;;;;4190045;28;20105;-61
2021/07/04 10:15:24;;;;;;;6.15;4.13;;;21.00;99.90;;;;;;4188262;28;20032;-60
2021/07/04 10:17:29;;;;;;;4.07;3.67;;;21.00;99.90;;;;;;4190408;28;20562;-60
2021/07/04 10:19:31;;;;;;;7.20;3.95;;;20.90;99.90;;;;;;4188612;28;20077;-61
2021/07/04 10:21:34;;;;;;;4.40;4.00;;;20.80;99.90;;;;;;4189305;28;20085;-59
2021/07/04 10:23:36;;;;;;;5.53;4.03;;;20.80;99.90;;;;;;4188692;28;20059;-60
2021/07/04 10:25:37;;;;;;;6.45;4.20;;;20.80;99.90;;;;;;4189082;28;20082;-60
2021/07/04 10:27:40;;;;;;;5.55;3.78;;;20.80;99.90;;;;;;4189090;28;20078;-60
2021/07/04 10:29:41;;;;;;;4.60;4.20;;;20.70;99.90;;;;;;4188600;28;20036;-59
2021/07/04 10:31:43;;;;;;;8.88;4.20;;;20.70;99.90;;;;;;4188975;28;20048;-58
2021/07/04 10:33:45;;;;;;;6.70;3.95;;;20.80;99.90;;;;;;4187889;28;20032;-60
2021/07/04 10:36:03;;;;;;;7.45;3.97;;;20.90;99.90;;;;;;4189712;28;20051;-60
2021/07/04 10:38:14;;;;;;;5.32;4.05;;;21.00;99.90;;;;;;4187871;28;20037;-60